sensor_id;sensor_type;location;lat;lon;timestamp;temperature;humidity
41557;DHT22;27720;51.992;5.890;2024-03-22T10:24:59;10.30;99.90
41557;DHT22;27720;51.992;5.890;2024-03-22T10:27:29;10.60;99.90
41557;DHT22;27720;51.992;5.890;2024-03-22T10:29:55;11.10;99.90
41557;DHT22;27720;51.992;5.890;2024-03-22T10:32:22;11.50;99.90
41557;DHT22;27720;51.992;5.890;2024-03-22T10:34:50;11.80;99.90
41557;DHT22;27720;51.992;5.890;2024-03-22T10:37:19;12.10;99.90
41557;DHT22;27720;51.992;5.890;2024-03-22T10:39:46;12.40;99.90
41557;DHT22;27720;51.992;5.890;2024-03-22T10:42:13;12.60;99.90
41557;DHT22;27720;51.992;5.890;2024-03-22T10:44:40;12.70;99.90
41557;DHT22;27720;51.992;5.890;2024-03-22T10:47:09;12.80;99.90
41557;DHT22;27720;51.992;5.890;2024-03-22T10:49:37;12.90;99.90
41557;DHT22;27720;51.992;5.890;2024-03-22T10:52:05;13.00;99.90
41557;DHT22;27720;51.992;5.890;2024-03-22T10:54:38;13.00;99.90
41557;DHT22;27720;51.992;5.890;2024-03-22T10:57:07;13.10;99.90
41557;DHT22;27720;51.992;5.890;2024-03-22T10:59:37;13.10;99.90
41557;DHT22;27720;51.992;5.890;2024-03-22T11:02:06;13.10;99.90
41557;DHT22;27720;51.992;5.890;2024-03-22T11:04:33;13.10;99.90
41557;DHT22;27720;51.992;5.890;2024-03-22T11:06:59;13.10;99.90
41557;DHT22;27720;51.992;5.890;2024-03-22T11:09:26;13.10;99.90
41557;DHT22;27720;51.992;5.890;2024-03-22T11:11:53;13.10;99.90
41557;DHT22;27720;51.992;5.890;2024-03-22T11:14:19;13.10;99.90
41557;DHT22;27720;51.992;5.890;2024-03-22T11:16:51;13.10;99.90
41557;DHT22;27720;51.992;5.890;2024-03-22T11:19:19;13.20;99.90
41557;DHT22;27720;51.992;5.890;2024-03-22T11:21:45;13.20;99.90
41557;DHT22;27720;51.992;5.890;2024-03-22T11:24:11;13.20;99.90
41557;DHT22;27720;51.992;5.890;2024-03-22T11:26:37;13.10;99.90
41557;DHT22;27720;51.992;5.890;2024-03-22T11:29:03;13.20;99.90
41557;DHT22;27720;51.992;5.890;2024-03-22T11:31:29;13.20;99.90
41557;DHT22;27720;51.992;5.890;2024-03-22T11:33:55;13.20;99.90
41557;DHT22;27720;51.992;5.890;2024-03-22T11:36:22;13.20;99.90
41557;DHT22;27720;51.992;5.890;2024-03-22T11:38:48;13.10;99.90
41557;DHT22;27720;51.992;5.890;2024-03-22T11:41:17;13.20;99.90
41557;DHT22;27720;51.992;5.890;2024-03-22T11:43:44;13.20;99.90
41557;DHT22;27720;51.992;5.890;2024-03-22T11:46:10;13.20;99.90
41557;DHT22;27720;51.992;5.890;2024-03-22T11:48:40;13.20;99.90
41557;DHT22;27720;51.992;5.890;2024-03-22T11:51:07;13.20;99.90
41557;DHT22;27720;51.992;5.890;2024-03-22T11:53:35;13.20;99.90
41557;DHT22;27720;51.992;5.890;2024-03-22T11:56:01;13.20;99.90
41557;DHT22;27720;51.992;5.890;2024-03-22T11:58:29;13.20;99.90
41557;DHT22;27720;51.992;5.890;2024-03-22T12:00:58;13.20;99.90
41557;DHT22;27720;51.992;5.890;2024-03-22T12:03:25;13.20;99.90
41557;DHT22;27720;51.992;5.890;2024-03-22T12:05:54;13.20;99.90
41557;DHT22;27720;51.992;5.890;2024-03-22T12:08:20;13.20;99.90
41557;DHT22;27720;51.992;5.890;2024-03-22T12:10:46;13.10;99.90
41557;DHT22;27720;51.992;5.890;2024-03-22T12:13:11;13.10;99.90
41557;DHT22;27720;51.992;5.890;2024-03-22T12:15:37;13.20;99.90
41557;DHT22;27720;51.992;5.890;2024-03-22T12:18:03;13.20;99.90
41557;DHT22;27720;51.992;5.890;2024-03-22T12:20:29;13.10;99.90
41557;DHT22;27720;51.992;5.890;2024-03-22T12:22:55;13.20;99.90
41557;DHT22;27720;51.992;5.890;2024-03-22T12:25:21;13.20;99.90
41557;DHT22;27720;51.992;5.890;2024-03-22T12:27:47;13.20;99.90
41557;DHT22;27720;51.992;5.890;2024-03-22T12:30:13;13.20;99.90
41557;DHT22;27720;51.992;5.890;2024-03-22T12:32:39;13.20;99.90
41557;DHT22;27720;51.992;5.890;2024-03-22T12:35:05;13.30;99.90
41557;DHT22;27720;51.992;5.890;2024-03-22T12:37:31;13.30;99.90
41557;DHT22;27720;51.992;5.890;2024-03-22T12:39:57;13.30;99.90
41557;DHT22;27720;51.992;5.890;2024-03-22T12:42:25;13.40;99.90
41557;DHT22;27720;51.992;5.890;2024-03-22T12:44:51;13.40;99.90
41557;DHT22;27720;51.992;5.890;2024-03-22T12:47:16;13.40;99.90
41557;DHT22;27720;51.992;5.890;2024-03-22T12:49:45;13.30;99.90
41557;DHT22;27720;51.992;5.890;2024-03-22T12:52:10;13.30;99.90
41557;DHT22;27720;51.992;5.890;2024-03-22T12:54:36;13.30;99.90
41557;DHT22;27720;51.992;5.890;2024-03-22T12:57:04;13.30;99.90
41557;DHT22;27720;51.992;5.890;2024-03-22T12:59:30;13.30;99.90
41557;DHT22;27720;51.992;5.890;2024-03-22T13:01:56;13.30;99.90
41557;DHT22;27720;51.992;5.890;2024-03-22T13:04:21;13.30;99.90
41557;DHT22;27720;51.992;5.890;2024-03-22T13:06:48;13.30;99.90
41557;DHT22;27720;51.992;5.890;2024-03-22T13:09:15;13.40;99.90
41557;DHT22;27720;51.992;5.890;2024-03-22T13:11:41;13.30;99.90
41557;DHT22;27720;51.992;5.890;2024-03-22T13:14:07;13.30;99.90
41557;DHT22;27720;51.992;5.890;2024-03-22T13:16:33;13.30;99.90
41557;DHT22;27720;51.992;5.890;2024-03-22T13:18:59;13.30;99.90
41557;DHT22;27720;51.992;5.890;2024-03-22T13:21:25;13.30;99.90
41557;DHT22;27720;51.992;5.890;2024-03-22T13:23:50;13.40;99.90
41557;DHT22;27720;51.992;5.890;2024-03-22T13:26:16;13.40;99.90
41557;DHT22;27720;51.992;5.890;2024-03-22T13:28:42;13.40;99.90
41557;DHT22;27720;51.992;5.890;2024-03-22T13:31:09;13.50;99.90
41557;DHT22;27720;51.992;5.890;2024-03-22T13:33:34;13.50;99.90
41557;DHT22;27720;51.992;5.890;2024-03-22T13:36:01;13.50;99.90
41557;DHT22;27720;51.992;5.890;2024-03-22T13:38:27;13.50;99.90
41557;DHT22;27720;51.992;5.890;2024-03-22T13:40:58;13.50;99.90
41557;DHT22;27720;51.992;5.890;2024-03-22T13:43:28;13.50;99.90
41557;DHT22;27720;51.992;5.890;2024-03-22T13:45:56;13.40;99.90
41557;DHT22;27720;51.992;5.890;2024-03-22T13:48:23;13.40;99.90
41557;DHT22;27720;51.992;5.890;2024-03-22T13:50:53;13.30;99.90
41557;DHT22;27720;51.992;5.890;2024-03-22T13:53:29;13.30;99.90
41557;DHT22;27720;51.992;5.890;2024-03-22T13:55:54;13.30;99.90
41557;DHT22;27720;51.992;5.890;2024-03-22T13:58:20;13.20;99.90
41557;DHT22;27720;51.992;5.890;2024-03-22T14:00:46;13.20;99.90
41557;DHT22;27720;51.992;5.890;2024-03-22T14:03:12;13.10;99.90
41557;DHT22;27720;51.992;5.890;2024-03-22T14:05:37;13.00;99.90
41557;DHT22;27720;51.992;5.890;2024-03-22T14:08:06;12.90;99.90
41557;DHT22;27720;51.992;5.890;2024-03-22T14:10:32;12.90;99.90
41557;DHT22;27720;51.992;5.890;2024-03-22T14:12:58;13.00;99.90
41557;DHT22;27720;51.992;5.890;2024-03-22T14:15:24;13.00;99.90
41557;DHT22;27720;51.992;5.890;2024-03-22T14:17:54;13.00;99.90
41557;DHT22;27720;51.992;5.890;2024-03-22T14:20:21;13.10;99.90
41557;DHT22;27720;51.992;5.890;2024-03-22T14:22:46;13.10;99.90
41557;DHT22;27720;51.992;5.890;2024-03-22T14:25:13;13.10;99.90
41557;DHT22;27720;51.992;5.890;2024-03-22T14:27:39;13.10;99.90
41557;DHT22;27720;51.992;5.890;2024-03-22T14:30:05;13.10;99.90
41557;DHT22;27720;51.992;5.890;2024-03-22T14:32:34;13.10;99.90
41557;DHT22;27720;51.992;5.890;2024-03-22T14:35:00;13.20;99.90
41557;DHT22;27720;51.992;5.890;2024-03-22T14:37:26;13.20;99.90
41557;DHT22;27720;51.992;5.890;2024-03-22T14:39:52;13.20;99.90
41557;DHT22;27720;51.992;5.890;2024-03-22T14:42:20;13.20;99.90
41557;DHT22;27720;51.992;5.890;2024-03-22T14:44:46;13.20;99.90
41557;DHT22;27720;51.992;5.890;2024-03-22T14:47:12;13.30;99.90
41557;DHT22;27720;51.992;5.890;2024-03-22T14:49:38;13.20;99.90
41557;DHT22;27720;51.992;5.890;2024-03-22T14:52:13;13.20;99.90
41557;DHT22;27720;51.992;5.890;2024-03-22T14:54:41;13.10;99.90
41557;DHT22;27720;51.992;5.890;2024-03-22T14:57:06;13.10;99.90
41557;DHT22;27720;51.992;5.890;2024-03-22T14:59:32;13.10;99.90
41557;DHT22;27720;51.992;5.890;2024-03-22T15:01:58;13.10;99.90
41557;DHT22;27720;51.992;5.890;2024-03-22T15:04:25;13.10;99.90
41557;DHT22;27720;51.992;5.890;2024-03-22T15:06:51;13.10;99.90
41557;DHT22;27720;51.992;5.890;2024-03-22T15:09:20;13.20;99.90
41557;DHT22;27720;51.992;5.890;2024-03-22T15:11:46;13.20;99.90
41557;DHT22;27720;51.992;5.890;2024-03-22T15:14:12;13.20;99.90
41557;DHT22;27720;51.992;5.890;2024-03-22T15:16:39;13.20;99.90
41557;DHT22;27720;51.992;5.890;2024-03-22T15:19:05;13.20;99.90
41557;DHT22;27720;51.992;5.890;2024-03-22T15:21:31;13.20;99.90
41557;DHT22;27720;51.992;5.890;2024-03-22T15:24:00;13.20;99.90
41557;DHT22;27720;51.992;5.890;2024-03-22T15:26:26;13.20;99.90
41557;DHT22;27720;51.992;5.890;2024-03-22T15:28:52;13.20;99.90
41557;DHT22;27720;51.992;5.890;2024-03-22T15:31:17;13.10;99.90
41557;DHT22;27720;51.992;5.890;2024-03-22T15:33:43;13.20;99.90
41557;DHT22;27720;51.992;5.890;2024-03-22T15:36:09;13.20;99.90
41557;DHT22;27720;51.992;5.890;2024-03-22T15:38:34;13.30;99.90
41557;DHT22;27720;51.992;5.890;2024-03-22T15:41:00;13.30;99.90
41557;DHT22;27720;51.992;5.890;2024-03-22T15:43:26;13.30;99.90
41557;DHT22;27720;51.992;5.890;2024-03-22T15:45:52;13.30;99.90
41557;DHT22;27720;51.992;5.890;2024-03-22T15:48:18;13.30;99.90
41557;DHT22;27720;51.992;5.890;2024-03-22T15:50:49;13.30;99.90
41557;DHT22;27720;51.992;5.890;2024-03-22T15:53:16;13.30;99.90
41557;DHT22;27720;51.992;5.890;2024-03-22T15:55:42;13.30;99.90
41557;DHT22;27720;51.992;5.890;2024-03-22T15:58:07;13.30;99.90
41557;DHT22;27720;51.992;5.890;2024-03-22T16:00:33;13.30;99.90
41557;DHT22;27720;51.992;5.890;2024-03-22T16:03:02;13.20;99.90
41557;DHT22;27720;51.992;5.890;2024-03-22T16:05:27;13.20;99.90
41557;DHT22;27720;51.992;5.890;2024-03-22T16:07:53;13.20;99.90
41557;DHT22;27720;51.992;5.890;2024-03-22T16:10:19;13.30;99.90
41557;DHT22;27720;51.992;5.890;2024-03-22T16:12:44;13.30;99.90
41557;DHT22;27720;51.992;5.890;2024-03-22T16:15:10;13.20;99.90
41557;DHT22;27720;51.992;5.890;2024-03-22T16:17:36;13.20;99.90
41557;DHT22;27720;51.992;5.890;2024-03-22T16:20:02;13.10;99.90
41557;DHT22;27720;51.992;5.890;2024-03-22T16:22:28;13.20;99.90
41557;DHT22;27720;51.992;5.890;2024-03-22T16:24:57;13.20;99.90
41557;DHT22;27720;51.992;5.890;2024-03-22T16:27:23;13.20;99.90
41557;DHT22;27720;51.992;5.890;2024-03-22T16:29:49;13.20;99.90
41557;DHT22;27720;51.992;5.890;2024-03-22T16:32:15;13.20;99.90
41557;DHT22;27720;51.992;5.890;2024-03-22T16:34:41;13.20;99.90
41557;DHT22;27720;51.992;5.890;2024-03-22T16:37:07;13.20;99.90
41557;DHT22;27720;51.992;5.890;2024-03-22T16:39:33;13.10;99.90
41557;DHT22;27720;51.992;5.890;2024-03-22T16:42:01;13.00;99.90
41557;DHT22;27720;51.992;5.890;2024-03-22T16:44:27;13.00;99.90
41557;DHT22;27720;51.992;5.890;2024-03-22T16:46:53;13.00;99.90
41557;DHT22;27720;51.992;5.890;2024-03-22T16:49:19;13.00;99.90
41557;DHT22;27720;51.992;5.890;2024-03-22T16:51:45;12.90;99.90
41557;DHT22;27720;51.992;5.890;2024-03-22T16:54:11;12.80;99.90
41557;DHT22;27720;51.992;5.890;2024-03-22T16:56:36;12.80;99.90
41557;DHT22;27720;51.992;5.890;2024-03-22T16:59:02;12.70;99.90
41557;DHT22;27720;51.992;5.890;2024-03-22T17:01:28;12.70;99.90
41557;DHT22;27720;51.992;5.890;2024-03-22T17:03:54;12.50;99.90
41557;DHT22;27720;51.992;5.890;2024-03-22T17:06:20;12.50;99.90
41557;DHT22;27720;51.992;5.890;2024-03-22T17:08:46;12.40;99.90
41557;DHT22;27720;51.992;5.890;2024-03-22T17:11:12;12.30;99.90
41557;DHT22;27720;51.992;5.890;2024-03-22T17:13:37;12.30;99.90
41557;DHT22;27720;51.992;5.890;2024-03-22T17:16:03;12.30;99.90
41557;DHT22;27720;51.992;5.890;2024-03-22T17:18:29;12.20;99.90
41557;DHT22;27720;51.992;5.890;2024-03-22T17:20:55;12.10;99.90
41557;DHT22;27720;51.992;5.890;2024-03-22T17:23:21;12.10;99.90
41557;DHT22;27720;51.992;5.890;2024-03-22T17:25:46;12.00;99.90
41557;DHT22;27720;51.992;5.890;2024-03-22T17:28:12;12.00;99.90
41557;DHT22;27720;51.992;5.890;2024-03-22T17:30:38;12.10;99.90
41557;DHT22;27720;51.992;5.890;2024-03-22T17:33:04;12.10;99.90
41557;DHT22;27720;51.992;5.890;2024-03-22T17:35:30;12.10;99.90
41557;DHT22;27720;51.992;5.890;2024-03-22T17:37:59;12.10;99.90
41557;DHT22;27720;51.992;5.890;2024-03-22T17:40:25;12.10;99.90
41557;DHT22;27720;51.992;5.890;2024-03-22T17:42:50;12.10;99.90
41557;DHT22;27720;51.992;5.890;2024-03-22T17:45:16;12.10;99.90
41557;DHT22;27720;51.992;5.890;2024-03-22T17:47:42;12.10;99.90
41557;DHT22;27720;51.992;5.890;2024-03-22T17:50:09;12.10;99.90
41557;DHT22;27720;51.992;5.890;2024-03-22T17:52:36;12.10;99.90
41557;DHT22;27720;51.992;5.890;2024-03-22T17:55:01;12.10;99.90
41557;DHT22;27720;51.992;5.890;2024-03-22T17:57:27;12.20;99.90
41557;DHT22;27720;51.992;5.890;2024-03-22T17:59:54;12.10;99.90
41557;DHT22;27720;51.992;5.890;2024-03-22T18:02:20;12.20;99.90
41557;DHT22;27720;51.992;5.890;2024-03-22T18:04:45;12.10;99.90
41557;DHT22;27720;51.992;5.890;2024-03-22T18:07:11;12.20;99.90
41557;DHT22;27720;51.992;5.890;2024-03-22T18:09:37;12.20;99.90
41557;DHT22;27720;51.992;5.890;2024-03-22T18:12:03;12.10;99.90
41557;DHT22;27720;51.992;5.890;2024-03-22T18:14:30;12.10;99.90
41557;DHT22;27720;51.992;5.890;2024-03-22T18:16:56;12.10;99.90
41557;DHT22;27720;51.992;5.890;2024-03-22T18:19:22;12.10;99.90
41557;DHT22;27720;51.992;5.890;2024-03-22T18:21:47;12.10;99.90
41557;DHT22;27720;51.992;5.890;2024-03-22T18:24:15;12.10;99.90
41557;DHT22;27720;51.992;5.890;2024-03-22T18:26:44;12.00;99.90
41557;DHT22;27720;51.992;5.890;2024-03-22T18:29:10;12.10;99.90
41557;DHT22;27720;51.992;5.890;2024-03-22T18:31:36;12.10;99.90
41557;DHT22;27720;51.992;5.890;2024-03-22T18:34:02;12.10;99.90
41557;DHT22;27720;51.992;5.890;2024-03-22T18:36:29;12.10;99.90
41557;DHT22;27720;51.992;5.890;2024-03-22T18:38:56;12.10;99.90
41557;DHT22;27720;51.992;5.890;2024-03-22T18:41:24;12.10;99.90
41557;DHT22;27720;51.992;5.890;2024-03-22T18:43:50;12.10;99.90
41557;DHT22;27720;51.992;5.890;2024-03-22T18:46:17;12.10;99.90
41557;DHT22;27720;51.992;5.890;2024-03-22T18:48:46;12.10;99.90
41557;DHT22;27720;51.992;5.890;2024-03-22T18:51:11;12.10;99.90
41557;DHT22;27720;51.992;5.890;2024-03-22T18:53:39;12.10;99.90
41557;DHT22;27720;51.992;5.890;2024-03-22T18:56:05;12.10;99.90
41557;DHT22;27720;51.992;5.890;2024-03-22T18:58:33;12.10;99.90
41557;DHT22;27720;51.992;5.890;2024-03-22T19:00:59;12.10;99.90
41557;DHT22;27720;51.992;5.890;2024-03-22T19:03:25;12.20;99.90
41557;DHT22;27720;51.992;5.890;2024-03-22T19:05:54;12.20;99.90
41557;DHT22;27720;51.992;5.890;2024-03-22T19:08:19;12.10;99.90
41557;DHT22;27720;51.992;5.890;2024-03-22T19:10:45;12.10;99.90
41557;DHT22;27720;51.992;5.890;2024-03-22T19:13:11;12.10;99.90
41557;DHT22;27720;51.992;5.890;2024-03-22T19:15:37;12.10;99.90
41557;DHT22;27720;51.992;5.890;2024-03-22T19:18:07;12.10;99.90
41557;DHT22;27720;51.992;5.890;2024-03-22T19:20:32;12.10;99.90
41557;DHT22;27720;51.992;5.890;2024-03-22T19:22:58;12.10;99.90
41557;DHT22;27720;51.992;5.890;2024-03-22T19:25:24;12.10;99.90
41557;DHT22;27720;51.992;5.890;2024-03-22T19:27:52;12.10;99.90
41557;DHT22;27720;51.992;5.890;2024-03-22T19:30:18;12.10;99.90
41557;DHT22;27720;51.992;5.890;2024-03-22T19:32:48;12.10;99.90
41557;DHT22;27720;51.992;5.890;2024-03-22T19:35:14;12.10;99.90
41557;DHT22;27720;51.992;5.890;2024-03-22T19:37:40;12.10;99.90
41557;DHT22;27720;51.992;5.890;2024-03-22T19:40:06;12.10;99.90
41557;DHT22;27720;51.992;5.890;2024-03-22T19:42:32;12.00;99.90
41557;DHT22;27720;51.992;5.890;2024-03-22T19:44:58;12.00;99.90
41557;DHT22;27720;51.992;5.890;2024-03-22T19:47:24;12.00;99.90
41557;DHT22;27720;51.992;5.890;2024-03-22T19:49:50;12.00;99.90
41557;DHT22;27720;51.992;5.890;2024-03-22T19:52:15;12.00;99.90
41557;DHT22;27720;51.992;5.890;2024-03-22T19:54:41;12.00;99.90
41557;DHT22;27720;51.992;5.890;2024-03-22T19:57:07;12.00;99.90
41557;DHT22;27720;51.992;5.890;2024-03-22T19:59:33;12.00;99.90
41557;DHT22;27720;51.992;5.890;2024-03-22T20:01:59;12.00;99.90
41557;DHT22;27720;51.992;5.890;2024-03-22T20:04:25;12.00;99.90
41557;DHT22;27720;51.992;5.890;2024-03-22T20:06:53;12.10;99.90
41557;DHT22;27720;51.992;5.890;2024-03-22T20:09:19;12.10;99.90
